Time;durP1;ratioP1;P1;durP2;ratioP2;P2;SDS_P1;SDS_P2;PMS_P1;PMS_P2;Temp;Humidity;BMP_temperature;BMP_pressure;BME280_temperature;BME280_humidity;BME280_pressure;Samples;Min_cycle;Max_cycle;Signal;HPM_P1;HPM_P2
2022/10/03 00:01:21;;;;;;;5.50;2.40;;;18.50;99.90;;;;;;4149156;28;20272;-73
2022/10/03 00:03:32;;;;;;;4.90;2.70;;;18.50;99.90;;;;;;4143117;28;20237;-73
2022/10/03 00:05:53;;;;;;;6.20;2.60;;;18.50;99.90;;;;;;4149379;28;20721;-73
2022/10/03 00:08:07;;;;;;;3.65;2.78;;;18.50;99.90;;;;;;4148815;28;20911;-73
2022/10/03 00:10:21;;;;;;;4.32;2.70;;;18.50;99.90;;;;;;4149278;28;20265;-73
2022/10/03 00:12:46;;;;;;;6.00;3.00;;;18.50;99.90;;;;;;4145365;28;20565;-73
2022/10/03 00:14:59;;;;;;;5.13;3.17;;;18.50;99.90;;;;;;4148838;28;20217;-73
2022/10/03 00:17:09;;;;;;;4.75;2.53;;;18.50;99.90;;;;;;4148583;28;20220;-73
2022/10/03 00:19:25;;;;;;;3.92;2.85;;;18.50;99.90;;;;;;4147055;28;20636;-73
2022/10/03 00:21:49;;;;;;;3.28;2.50;;;18.40;99.90;;;;;;4148735;28;20225;-73
2022/10/03 00:24:02;;;;;;;3.22;2.50;;;18.40;99.90;;;;;;4148563;28;20213;-73
2022/10/03 00:26:30;;;;;;;3.80;2.72;;;18.40;99.90;;;;;;4148702;28;20271;-73
2022/10/03 00:28:55;;;;;;;5.85;2.95;;;18.50;99.90;;;;;;4147307;28;20217;-73
2022/10/03 00:31:10;;;;;;;6.13;2.80;;;18.50;99.90;;;;;;4147017;28;20276;-73
2022/10/03 00:33:22;;;;;;;6.20;2.72;;;18.40;99.90;;;;;;4143621;28;20241;-73
2022/10/03 00:35:42;;;;;;;4.82;3.08;;;18.40;99.90;;;;;;4147967;28;20935;-73
2022/10/03 00:37:54;;;;;;;5.05;2.90;;;18.40;99.90;;;;;;4148381;28;20249;-73
2022/10/03 00:40:29;;;;;;;4.90;3.08;;;18.40;99.90;;;;;;4148737;28;20217;-73
2022/10/03 00:43:10;;;;;;;4.53;2.78;;;18.40;99.90;;;;;;4147217;28;20216;-73
2022/10/03 00:45:41;;;;;;;5.60;3.10;;;18.40;99.90;;;;;;4137355;28;20209;-73
2022/10/03 00:48:13;;;;;;;5.20;3.17;;;18.40;99.90;;;;;;4147611;28;20639;-73
2022/10/03 00:50:52;;;;;;;4.38;2.70;;;18.40;99.90;;;;;;4134380;28;20213;-73
2022/10/03 00:53:08;;;;;;;6.70;3.80;;;18.40;99.90;;;;;;4146226;28;20282;-73
2022/10/03 00:55:20;;;;;;;6.13;3.10;;;18.40;99.90;;;;;;4146702;28;20271;-73
2022/10/03 00:57:47;;;;;;;4.88;2.83;;;18.40;99.90;;;;;;4147814;28;20225;-73
2022/10/03 01:00:14;;;;;;;5.50;3.55;;;18.40;99.90;;;;;;4131844;28;20217;-73
2022/10/03 01:02:27;;;;;;;5.13;2.88;;;18.40;99.90;;;;;;4140939;28;20206;-73
2022/10/03 01:04:43;;;;;;;7.43;3.20;;;18.40;99.90;;;;;;4146642;28;20221;-73
2022/10/03 01:06:49;;;;;;;4.53;2.78;;;18.40;99.90;;;;;;4147778;28;20217;-73
2022/10/03 01:09:23;;;;;;;7.22;3.38;;;18.40;99.90;;;;;;4145654;28;20225;-73
2022/10/03 01:11:38;;;;;;;4.05;3.00;;;18.40;99.90;;;;;;4138981;28;20284;-73
2022/10/03 01:13:53;;;;;;;6.05;3.20;;;18.40;99.90;;;;;;4147765;28;20295;-73
2022/10/03 01:16:05;;;;;;;4.75;2.92;;;18.40;99.90;;;;;;4147775;28;20217;-73
2022/10/03 01:18:21;;;;;;;4.95;3.00;;;18.40;99.90;;;;;;4147946;28;20275;-73
2022/10/03 01:20:30;;;;;;;6.00;3.28;;;18.40;99.90;;;;;;4146951;28;20217;-73
2022/10/03 01:22:54;;;;;;;4.50;3.03;;;18.40;99.90;;;;;;4143143;28;20274;-73
2022/10/03 01:25:03;;;;;;;4.63;3.10;;;18.40;99.90;;;;;;4147054;28;20222;-73
2022/10/03 01:27:07;;;;;;;5.13;2.75;;;18.40;99.90;;;;;;4139325;28;20259;-73
2022/10/03 01:31:43;;;;;;;4.60;3.10;;;18.40;99.90;;;;;;4148305;28;20201;-73
2022/10/03 01:33:53;;;;;;;4.75;3.00;;;18.40;99.90;;;;;;4144047;28;20233;-73
2022/10/03 01:36:02;;;;;;;3.63;2.72;;;18.40;99.90;;;;;;4147287;28;20638;-73
2022/10/03 01:38:16;;;;;;;4.15;2.75;;;18.40;99.90;;;;;;4147259;28;20271;-73
2022/10/03 01:40:27;;;;;;;7.18;3.30;;;18.40;99.90;;;;;;4140356;28;20263;-73
2022/10/03 01:42:40;;;;;;;5.32;3.00;;;18.40;99.90;;;;;;4142279;28;20263;-73
2022/10/03 01:45:01;;;;;;;5.32;3.17;;;18.40;99.90;;;;;;4146717;28;20311;-75
2022/10/03 01:47:14;;;;;;;5.18;3.10;;;18.40;99.90;;;;;;4146623;28;20228;-74
2022/10/03 01:49:25;;;;;;;5.78;3.20;;;18.40;99.90;;;;;;4141322;28;20271;-74
2022/10/03 01:51:33;;;;;;;6.00;2.90;;;18.30;99.90;;;;;;4145866;28;20217;-74
2022/10/03 01:53:53;;;;;;;5.40;2.88;;;18.40;99.90;;;;;;4144908;28;20693;-74
2022/10/03 01:56:03;;;;;;;4.93;3.00;;;18.40;99.90;;;;;;4145705;28;20213;-73
2022/10/03 01:58:09;;;;;;;5.40;3.25;;;18.40;99.90;;;;;;4142936;28;20221;-73
2022/10/03 02:00:16;;;;;;;4.78;3.30;;;18.40;99.90;;;;;;4142863;28;20209;-73
2022/10/03 02:02:28;;;;;;;4.72;2.80;;;18.40;99.90;;;;;;4145993;28;20213;-73
2022/10/03 02:04:42;;;;;;;4.90;3.20;;;18.40;99.90;;;;;;4141221;28;20239;-73
2022/10/03 02:06:53;;;;;;;5.32;2.88;;;18.40;99.90;;;;;;4140254;28;20711;-74
2022/10/03 02:09:04;;;;;;;5.13;2.90;;;18.40;99.90;;;;;;4145600;28;20279;-74
2022/10/03 02:11:08;;;;;;;5.07;3.13;;;18.40;99.90;;;;;;4145955;28;20225;-73
2022/10/03 02:13:16;;;;;;;5.88;3.03;;;18.40;99.90;;;;;;4145389;28;20240;-74
2022/10/03 02:15:26;;;;;;;7.00;3.00;;;18.40;99.90;;;;;;4144003;28;20224;-74
2022/10/03 02:17:45;;;;;;;5.15;3.17;;;18.30;99.90;;;;;;4146101;28;20225;-74
2022/10/03 02:19:55;;;;;;;6.45;3.00;;;18.30;99.90;;;;;;4144860;28;20260;-74
2022/10/03 02:21:59;;;;;;;5.63;2.85;;;18.40;99.90;;;;;;4146248;28;20220;-73
2022/10/03 02:24:24;;;;;;;4.40;2.80;;;18.30;99.90;;;;;;4145632;28;20259;-74
2022/10/03 02:27:01;;;;;;;5.05;3.20;;;18.30;99.90;;;;;;4145873;28;20729;-74
2022/10/03 02:29:33;;;;;;;5.70;3.20;;;18.30;99.90;;;;;;4142740;28;20642;-74
2022/10/03 02:32:02;;;;;;;6.95;3.20;;;18.30;99.90;;;;;;4133330;28;20907;-74
2022/10/03 02:34:24;;;;;;;3.83;2.33;;;18.30;99.90;;;;;;4145848;28;20287;-74
2022/10/03 02:36:45;;;;;;;5.82;3.05;;;18.30;99.90;;;;;;4144917;28;20209;-73
2022/10/03 02:39:27;;;;;;;6.40;3.13;;;18.30;99.90;;;;;;4140617;28;20268;-73
2022/10/03 02:41:54;;;;;;;6.05;3.35;;;18.30;99.90;;;;;;4141255;28;20285;-74
2022/10/03 02:44:35;;;;;;;6.05;3.35;;;18.30;99.90;;;;;;4148838;28;20255;-73
2022/10/03 02:47:27;;;;;;;4.22;3.10;;;18.30;99.90;;;;;;4135051;28;20739;-73
2022/10/03 02:50:07;;;;;;;6.10;2.90;;;18.30;99.90;;;;;;4135690;28;20276;-74
2022/10/03 02:52:48;;;;;;;5.90;3.15;;;18.30;99.90;;;;;;4147956;28;20236;-74
2022/10/03 02:55:23;;;;;;;4.60;3.20;;;18.30;99.90;;;;;;4084851;28;20271;-74
2022/10/03 02:57:50;;;;;;;5.25;2.88;;;18.30;99.90;;;;;;4147678;28;20270;-74
2022/10/03 03:00:08;;;;;;;5.55;2.97;;;18.30;99.90;;;;;;4140188;28;20275;-74
2022/10/03 03:02:43;;;;;;;5.28;3.10;;;18.30;99.90;;;;;;4150290;28;20217;-74
2022/10/03 03:05:16;;;;;;;5.30;3.13;;;18.30;99.90;;;;;;4127984;28;20221;-73
2022/10/03 03:07:44;;;;;;;6.07;3.30;;;18.30;99.90;;;;;;4134343;28;20650;-74
2022/10/03 03:10:20;;;;;;;5.22;3.10;;;18.30;99.90;;;;;;4147507;28;20267;-74
2022/10/03 03:12:49;;;;;;;4.45;2.83;;;18.30;99.90;;;;;;4149869;28;20209;-74
2022/10/03 03:15:32;;;;;;;5.97;3.10;;;18.30;99.90;;;;;;4149670;28;20255;-74
2022/10/03 03:17:46;;;;;;;5.95;3.35;;;18.30;99.90;;;;;;4130387;28;20744;-74
2022/10/03 03:20:22;;;;;;;5.38;2.88;;;18.30;99.90;;;;;;4149359;28;20220;-74
2022/10/03 03:22:35;;;;;;;5.43;3.45;;;18.30;99.90;;;;;;4120741;28;20292;-74
2022/10/03 03:24:47;;;;;;;5.25;3.20;;;18.30;99.90;;;;;;4140784;28;20220;-74
2022/10/03 03:27:23;;;;;;;5.45;3.35;;;18.30;99.90;;;;;;4145059;28;20213;-74
2022/10/03 03:29:35;;;;;;;6.30;3.45;;;18.30;99.90;;;;;;4131445;28;20271;-74
2022/10/03 03:31:45;;;;;;;6.63;3.30;;;18.20;99.90;;;;;;4140921;28;20218;-74
2022/10/03 03:34:01;;;;;;;6.38;3.30;;;18.20;99.90;;;;;;4124094;28;20229;-74
2022/10/03 03:36:12;;;;;;;4.18;3.15;;;18.30;99.90;;;;;;4139908;28;20721;-74
2022/10/03 03:38:27;;;;;;;5.43;3.35;;;18.30;99.90;;;;;;4140444;28;20226;-74
2022/10/03 03:40:39;;;;;;;6.38;3.45;;;18.30;99.90;;;;;;4146108;28;20225;-74
2022/10/03 03:43:03;;;;;;;5.90;3.33;;;18.30;99.90;;;;;;4147157;28;20213;-74
2022/10/03 03:45:29;;;;;;;5.32;3.03;;;18.30;99.90;;;;;;4147293;28;20221;-74
2022/10/03 03:47:50;;;;;;;6.18;3.47;;;18.30;99.90;;;;;;4144145;28;20222;-74
2022/10/03 03:50:13;;;;;;;4.18;2.72;;;18.30;99.90;;;;;;4146668;28;20259;-74
2022/10/03 03:52:36;;;;;;;6.72;3.35;;;18.30;99.90;;;;;;4147858;28;20283;-74
2022/10/03 03:55:00;;;;;;;6.63;3.10;;;18.30;99.90;;;;;;4147536;28;20267;-74
2022/10/03 03:57:28;;;;;;;4.18;2.80;;;18.30;99.90;;;;;;4147662;28;20225;-74
2022/10/03 03:59:46;;;;;;;6.50;3.28;;;18.20;99.90;;;;;;4146989;28;20263;-74
2022/10/03 04:02:05;;;;;;;5.07;2.90;;;18.30;99.90;;;;;;4146405;28;20267;-74
2022/10/03 04:04:19;;;;;;;5.82;3.28;;;18.20;99.90;;;;;;4146801;28;20257;-74
2022/10/03 04:06:35;;;;;;;5.07;3.58;;;18.30;99.90;;;;;;4145924;28;20733;-74
2022/10/03 04:08:58;;;;;;;5.38;3.05;;;18.20;99.90;;;;;;4147590;28;20266;-74
2022/10/03 04:11:16;;;;;;;4.68;3.00;;;18.30;99.90;;;;;;4147308;28;20269;-74
2022/10/03 04:13:36;;;;;;;5.13;2.78;;;18.20;99.90;;;;;;4147089;28;20247;-74
2022/10/03 04:15:59;;;;;;;5.00;3.13;;;18.20;99.90;;;;;;4147557;28;20287;-74
2022/10/03 04:20:58;;;;;;;5.30;2.92;;;18.20;99.90;;;;;;4146755;28;20216;-74
2022/10/03 04:23:14;;;;;;;5.57;3.33;;;18.20;99.90;;;;;;4146399;28;20209;-74
2022/10/03 04:25:34;;;;;;;6.00;3.20;;;18.20;99.90;;;;;;4146665;28;20217;-74
2022/10/03 04:28:06;;;;;;;4.95;2.78;;;18.20;99.90;;;;;;4147053;28;20283;-74
2022/10/03 04:30:13;;;;;;;5.00;2.78;;;18.20;99.90;;;;;;4147206;28;20213;-74
2022/10/03 04:32:56;;;;;;;4.80;3.00;;;18.20;99.90;;;;;;4147460;28;20224;-74
2022/10/03 04:35:21;;;;;;;6.03;2.97;;;18.20;99.90;;;;;;4102678;28;20295;-74
2022/10/03 04:37:32;;;;;;;5.90;2.83;;;18.20;99.90;;;;;;4147373;28;20213;-73
2022/10/03 04:39:48;;;;;;;4.78;2.83;;;18.20;99.90;;;;;;4146774;28;20735;-74
2022/10/03 04:41:56;;;;;;;4.90;3.05;;;18.20;99.90;;;;;;4147026;28;20221;-74
2022/10/03 04:44:10;;;;;;;4.18;2.85;;;18.20;99.90;;;;;;4147121;28;20217;-73
2022/10/03 04:46:25;;;;;;;5.93;3.15;;;18.20;99.90;;;;;;4145600;28;20256;-74
2022/10/03 04:48:37;;;;;;;3.80;2.67;;;18.20;99.90;;;;;;4147354;28;20657;-74
2022/10/03 04:50:44;;;;;;;4.35;3.42;;;18.20;99.90;;;;;;4147595;28;20221;-74
2022/10/03 04:52:56;;;;;;;3.92;2.42;;;18.20;99.90;;;;;;4143450;28;20657;-74
2022/10/03 04:55:06;;;;;;;4.90;3.00;;;18.20;99.90;;;;;;4145866;28;20252;-74
2022/10/03 04:57:21;;;;;;;4.85;3.08;;;18.20;99.90;;;;;;4146967;28;20291;-74
2022/10/03 04:59:34;;;;;;;3.03;2.40;;;18.20;99.90;;;;;;4146077;28;20217;-74
2022/10/03 05:01:47;;;;;;;5.35;3.28;;;18.20;99.90;;;;;;4146024;28;20689;-74
2022/10/03 05:04:08;;;;;;;5.13;3.15;;;18.20;99.90;;;;;;4147290;28;20213;-74
2022/10/03 05:06:27;;;;;;;5.90;2.78;;;18.20;99.90;;;;;;4146619;28;20212;-74
2022/10/03 05:08:38;;;;;;;4.35;3.25;;;18.20;99.90;;;;;;4146868;28;20221;-74
2022/10/03 05:11:06;;;;;;;4.00;2.78;;;18.20;99.90;;;;;;4145257;28;20220;-73
2022/10/03 05:13:15;;;;;;;5.82;3.08;;;18.20;99.90;;;;;;4146817;28;20673;-74
2022/10/03 05:15:24;;;;;;;5.13;3.17;;;18.20;99.90;;;;;;4141816;28;20635;-74
2022/10/03 05:17:36;;;;;;;3.47;2.47;;;18.20;99.90;;;;;;4145883;28;20800;-73
2022/10/03 05:20:04;;;;;;;3.95;2.83;;;18.20;99.90;;;;;;4146802;28;20263;-74
2022/10/03 05:22:15;;;;;;;4.97;2.95;;;18.20;99.90;;;;;;4146709;28;20217;-74
2022/10/03 05:24:26;;;;;;;4.57;2.90;;;18.30;99.90;;;;;;4145968;28;20209;-74
2022/10/03 05:26:44;;;;;;;5.28;3.30;;;18.20;99.90;;;;;;4146067;28;20213;-74
2022/10/03 05:28:53;;;;;;;3.25;2.92;;;18.20;99.90;;;;;;4145567;28;20228;-74
2022/10/03 05:31:02;;;;;;;4.53;3.03;;;18.20;99.90;;;;;;4146295;28;20270;-74
2022/10/03 05:33:13;;;;;;;4.10;2.75;;;18.20;99.90;;;;;;4146255;28;20216;-74
2022/10/03 05:35:27;;;;;;;5.75;3.00;;;18.30;99.90;;;;;;4145145;28;20634;-74
2022/10/03 05:38:08;;;;;;;4.35;2.90;;;18.30;99.90;;;;;;4144677;28;20271;-74
2022/10/03 05:40:16;;;;;;;6.28;3.15;;;18.20;99.90;;;;;;4105886;28;20267;-74
2022/10/03 05:42:36;;;;;;;5.38;2.67;;;18.20;99.90;;;;;;4145506;28;20287;-74
2022/10/03 05:44:44;;;;;;;3.80;2.72;;;18.20;99.90;;;;;;4142222;28;20328;-74
2022/10/03 05:46:59;;;;;;;4.15;2.50;;;18.30;99.90;;;;;;4145498;28;20232;-73
2022/10/03 05:49:15;;;;;;;3.38;2.50;;;18.20;99.90;;;;;;4146745;28;20303;-74
2022/10/03 05:51:45;;;;;;;4.07;2.67;;;18.30;99.90;;;;;;4147180;28;20268;-73
2022/10/03 05:54:23;;;;;;;5.45;2.67;;;18.20;99.90;;;;;;4146362;28;20255;-73
2022/10/03 05:56:45;;;;;;;5.00;2.83;;;18.20;99.90;;;;;;4147303;28;20267;-74
2022/10/03 05:59:14;;;;;;;3.50;2.45;;;18.20;99.90;;;;;;4145518;28;20287;-74
2022/10/03 06:01:58;;;;;;;4.30;2.70;;;18.30;99.90;;;;;;4145315;28;20252;-74
2022/10/03 06:04:14;;;;;;;4.10;2.83;;;18.20;99.90;;;;;;4144895;28;20732;-74
2022/10/03 06:06:21;;;;;;;5.20;3.03;;;18.30;99.90;;;;;;4144673;28;20281;-74
2022/10/03 06:08:47;;;;;;;5.03;3.05;;;18.30;99.90;;;;;;4145977;28;20279;-73
2022/10/03 06:10:56;;;;;;;4.00;2.42;;;18.30;99.90;;;;;;4145632;28;20225;-74
2022/10/03 06:13:12;;;;;;;3.38;2.70;;;18.20;99.90;;;;;;4145853;28;20302;-74
2022/10/03 06:15:39;;;;;;;4.18;2.75;;;18.30;99.90;;;;;;4144989;28;20244;-74
2022/10/03 06:17:53;;;;;;;4.30;2.90;;;18.20;99.90;;;;;;4143725;28;20213;-74
2022/10/03 06:20:02;;;;;;;5.53;2.92;;;18.20;99.90;;;;;;4145835;28;20220;-74
2022/10/03 06:22:31;;;;;;;5.53;2.85;;;18.30;99.90;;;;;;4145001;28;20217;-74
2022/10/03 06:25:12;;;;;;;5.10;3.00;;;18.30;99.90;;;;;;4144978;28;20643;-74
2022/10/03 06:27:52;;;;;;;4.07;2.50;;;18.30;99.90;;;;;;4150293;28;20224;-74
2022/10/03 06:30:11;;;;;;;4.00;2.60;;;18.20;99.90;;;;;;4151815;28;20209;-74
2022/10/03 06:32:47;;;;;;;5.13;2.80;;;18.20;99.90;;;;;;4151139;28;20208;-74
2022/10/03 06:35:22;;;;;;;4.80;2.90;;;18.20;99.90;;;;;;4150845;28;20298;-74
2022/10/03 06:38:03;;;;;;;3.78;2.60;;;18.30;99.90;;;;;;4148830;28;20224;-74
2022/10/03 06:40:50;;;;;;;5.03;2.83;;;18.30;99.90;;;;;;4098127;29;20219;-74
2022/10/03 06:43:09;;;;;;;4.95;2.50;;;18.30;99.90;;;;;;4143879;28;20286;-74
2022/10/03 06:45:49;;;;;;;3.90;2.70;;;18.20;99.90;;;;;;4148525;28;20946;-74
2022/10/03 06:48:14;;;;;;;4.15;2.67;;;18.30;99.90;;;;;;4142031;28;20271;-73
2022/10/03 06:50:45;;;;;;;4.47;2.90;;;18.30;99.90;;;;;;4147573;28;20266;-73
2022/10/03 06:53:23;;;;;;;4.45;2.55;;;18.30;99.90;;;;;;4143126;28;20743;-72
2022/10/03 06:56:12;;;;;;;7.57;2.95;;;18.20;99.90;;;;;;4141867;28;20295;-74
2022/10/03 06:58:48;;;;;;;7.15;2.83;;;18.30;99.90;;;;;;4144175;28;20266;-76
2022/10/03 07:01:27;;;;;;;4.97;2.90;;;18.30;99.90;;;;;;4146528;28;20220;-75
2022/10/03 07:04:13;;;;;;;9.27;3.22;;;18.30;99.90;;;;;;4147494;28;20276;-74
2022/10/03 07:06:32;;;;;;;6.38;2.90;;;18.30;99.90;;;;;;4147614;28;20698;-75
2022/10/03 07:09:13;;;;;;;10.27;3.38;;;18.30;99.90;;;;;;4141553;28;20276;-76
2022/10/03 07:11:33;;;;;;;9.00;4.00;;;18.40;99.90;;;;;;4126926;28;20953;-75
2022/10/03 07:13:56;;;;;;;10.98;4.63;;;18.40;99.90;;;;;;4137675;28;20221;-74
2022/10/03 07:16:27;;;;;;;11.48;5.00;;;18.40;99.90;;;;;;4135909;28;20241;-74
2022/10/03 07:18:53;;;;;;;9.85;4.72;;;18.40;99.90;;;;;;4131754;28;20226;-74
2022/10/03 07:21:24;;;;;;;7.45;4.60;;;18.40;99.90;;;;;;4138865;28;20221;-74
2022/10/03 07:23:54;;;;;;;8.23;4.00;;;18.50;99.90;;;;;;4145032;28;20276;-75
2022/10/03 07:26:30;;;;;;;9.07;3.92;;;18.40;99.90;;;;;;4140766;28;20972;-74
2022/10/03 07:29:05;;;;;;;8.00;3.72;;;18.40;99.90;;;;;;4138660;28;20616;-74
2022/10/03 07:31:21;;;;;;;10.65;3.88;;;18.50;99.90;;;;;;4144312;28;20545;-79
2022/10/03 07:33:52;;;;;;;5.80;3.72;;;18.50;99.90;;;;;;4146179;28;20213;-79
2022/10/03 07:39:25;;;;;;;8.32;3.47;;;18.50;99.90;;;;;;4143412;28;20197;-75
2022/10/03 07:41:59;;;;;;;6.10;3.20;;;18.50;99.90;;;;;;4134795;28;20221;-74
2022/10/03 07:44:39;;;;;;;9.23;3.58;;;18.40;99.90;;;;;;4135287;28;20279;-77
2022/10/03 07:47:23;;;;;;;9.25;3.28;;;18.50;99.90;;;;;;4116397;28;20324;-76
2022/10/03 07:49:52;;;;;;;8.88;3.92;;;18.60;99.90;;;;;;4123082;28;20225;-76
2022/10/03 07:52:18;;;;;;;8.40;3.55;;;18.70;99.90;;;;;;4130502;28;20228;-75
2022/10/03 07:54:41;;;;;;;7.85;3.30;;;18.70;99.90;;;;;;4140725;28;20221;-76
2022/10/03 07:57:04;;;;;;;6.47;3.33;;;18.70;99.90;;;;;;4140992;28;20279;-76
2022/10/03 07:59:39;;;;;;;11.15;3.45;;;18.70;99.90;;;;;;4136304;28;20261;-82
2022/10/03 08:01:54;;;;;;;7.97;3.00;;;18.70;99.90;;;;;;4112243;28;20264;-79
2022/10/03 08:04:49;;;;;;;6.88;3.70;;;18.80;99.90;;;;;;4142568;28;20260;-76
2022/10/03 08:07:11;;;;;;;8.32;3.47;;;18.80;99.90;;;;;;4141898;28;20228;-74
2022/10/03 08:09:47;;;;;;;7.30;3.40;;;18.80;99.90;;;;;;4141746;28;20340;-75
2022/10/03 08:12:15;;;;;;;7.68;3.28;;;18.80;99.90;;;;;;4139314;28;20704;-79
2022/10/03 08:14:19;;;;;;;8.23;3.65;;;18.80;99.90;;;;;;4143677;28;20263;-78
2022/10/03 08:16:39;;;;;;;7.57;3.78;;;18.90;99.90;;;;;;4141598;28;20309;-75
2022/10/03 08:19:11;;;;;;;7.60;3.63;;;18.90;99.90;;;;;;4133723;28;20336;-77
2022/10/03 08:21:20;;;;;;;10.07;3.60;;;18.90;99.90;;;;;;4142983;28;20213;-75
2022/10/03 08:23:43;;;;;;;6.32;3.42;;;19.00;99.90;;;;;;4141622;28;20291;-74
2022/10/03 08:26:09;;;;;;;7.75;3.42;;;19.00;99.90;;;;;;4138785;28;20362;-76
2022/10/03 08:28:50;;;;;;;11.38;3.83;;;18.90;99.90;;;;;;4133548;28;20221;-78
2022/10/03 08:31:25;;;;;;;7.45;3.28;;;18.90;99.90;;;;;;4140964;28;20368;-80
2022/10/03 08:33:52;;;;;;;4.93;2.88;;;18.90;99.90;;;;;;4136961;28;20272;-80
2022/10/03 08:36:32;;;;;;;7.18;3.20;;;18.80;99.90;;;;;;4143696;28;20237;-77
2022/10/03 08:38:53;;;;;;;7.78;3.45;;;18.80;99.90;;;;;;4134545;28;20217;-80
2022/10/03 08:41:29;;;;;;;8.30;3.60;;;18.80;99.90;;;;;;4141817;28;20213;-82
2022/10/03 08:44:06;;;;;;;7.38;2.95;;;18.90;99.90;;;;;;4097776;28;20341;-81
2022/10/03 08:46:32;;;;;;;7.00;3.33;;;18.90;99.90;;;;;;4118525;28;20257;-72
2022/10/03 08:49:25;;;;;;;6.47;3.22;;;18.90;99.90;;;;;;4136201;28;20271;-71
2022/10/03 08:51:54;;;;;;;7.70;3.22;;;18.90;99.90;;;;;;4137347;28;20631;-72
2022/10/03 08:54:21;;;;;;;9.85;3.55;;;18.90;99.90;;;;;;4141647;28;20221;-76
2022/10/03 08:56:35;;;;;;;6.20;3.42;;;18.80;99.90;;;;;;4142726;28;20237;-74
2022/10/03 08:59:15;;;;;;;6.78;3.50;;;18.90;99.90;;;;;;4138591;28;20295;-75
2022/10/03 09:01:57;;;;;;;5.28;2.88;;;18.90;99.90;;;;;;4128866;28;20204;-73
2022/10/03 09:04:39;;;;;;;12.93;3.58;;;19.00;99.90;;;;;;4146558;28;20263;-74
2022/10/03 09:07:11;;;;;;;4.72;3.28;;;18.90;99.90;;;;;;4147219;28;20630;-75
2022/10/03 09:09:49;;;;;;;6.68;3.15;;;19.00;99.90;;;;;;4141679;28;20299;-76
2022/10/03 09:12:18;;;;;;;10.13;3.50;;;18.90;99.90;;;;;;4139084;28;20230;-75
2022/10/03 09:14:50;;;;;;;9.10;3.33;;;18.90;99.90;;;;;;4142806;28;20212;-75
2022/10/03 09:17:09;;;;;;;6.45;2.67;;;19.00;99.90;;;;;;4142971;28;20241;-75
2022/10/03 09:19:39;;;;;;;6.22;3.00;;;18.90;99.90;;;;;;4135111;28;20260;-74
2022/10/03 09:22:18;;;;;;;7.05;3.20;;;19.00;99.90;;;;;;4141952;28;20217;-73
2022/10/03 09:25:03;;;;;;;6.22;2.70;;;19.00;99.90;;;;;;4141115;28;20217;-74
2022/10/03 09:27:29;;;;;;;6.32;2.80;;;19.00;99.90;;;;;;4143198;28;20213;-73
2022/10/03 09:30:09;;;;;;;6.45;3.20;;;19.00;99.90;;;;;;4138770;28;20221;-73
2022/10/03 09:32:46;;;;;;;7.00;2.90;;;19.00;99.90;;;;;;4140774;28;20213;-74
2022/10/03 09:35:21;;;;;;;5.65;3.35;;;19.10;99.90;;;;;;4122994;28;20320;-75
2022/10/03 09:37:51;;;;;;;6.20;2.90;;;19.00;99.90;;;;;;4132783;28;20617;-74
2022/10/03 09:40:39;;;;;;;6.88;3.42;;;19.00;99.90;;;;;;4144862;28;20720;-74
2022/10/03 09:43:01;;;;;;;7.30;2.92;;;19.10;99.90;;;;;;4111339;28;20336;-75
2022/10/03 09:45:35;;;;;;;7.38;2.78;;;19.10;99.90;;;;;;4144501;28;20275;-76
2022/10/03 09:47:59;;;;;;;6.32;2.67;;;19.10;99.90;;;;;;4136523;28;20597;-76
2022/10/03 09:50:28;;;;;;;5.65;3.17;;;19.10;99.90;;;;;;4139916;28;20226;-76
2022/10/03 09:52:50;;;;;;;3.55;2.50;;;19.10;99.90;;;;;;4138567;28;20281;-76
2022/10/03 09:55:11;;;;;;;6.45;2.97;;;19.10;99.90;;;;;;4141411;28;20666;-75
2022/10/03 09:57:50;;;;;;;6.57;2.63;;;19.10;99.90;;;;;;4140503;28;20228;-74
2022/10/03 10:00:16;;;;;;;6.60;3.00;;;19.10;99.90;;;;;;4136378;28;20221;-75
2022/10/03 10:02:55;;;;;;;7.43;2.88;;;19.10;99.90;;;;;;4139654;28;20220;-75
2022/10/03 10:05:18;;;;;;;5.57;3.00;;;19.10;99.90;;;;;;4131510;28;20222;-75
2022/10/03 10:07:59;;;;;;;5.97;2.70;;;19.20;99.90;;;;;;4139847;28;20250;-76
2022/10/03 10:10:31;;;;;;;5.55;3.17;;;19.10;99.90;;;;;;4141423;28;20213;-75
2022/10/03 10:13:04;;;;;;;5.82;2.92;;;19.20;99.90;;;;;;4141728;28;20266;-75
2022/10/03 10:15:37;;;;;;;5.65;2.67;;;19.30;99.90;;;;;;4140444;28;20279;-74
2022/10/03 10:18:20;;;;;;;6.28;2.60;;;19.40;99.90;;;;;;4094204;28;20241;-74
2022/10/03 10:21:02;;;;;;;5.30;2.58;;;19.40;99.90;;;;;;4138064;28;20275;-74
2022/10/03 10:23:38;;;;;;;6.57;2.85;;;19.40;99.90;;;;;;4066006;29;20268;-75
2022/10/03 10:26:22;;;;;;;4.90;2.75;;;19.30;99.90;;;;;;4061850;29;20216;-76
2022/10/03 10:28:49;;;;;;;4.40;2.65;;;19.30;99.90;;;;;;4061465;29;20221;-75
2022/10/03 10:31:28;;;;;;;6.45;3.13;;;19.60;99.90;;;;;;4063930;29;20366;-75
2022/10/03 10:34:12;;;;;;;5.85;2.80;;;20.00;99.90;;;;;;4062316;29;20224;-74
2022/10/03 10:36:55;;;;;;;5.90;2.92;;;20.30;99.90;;;;;;4061731;29;20733;-75
2022/10/03 10:39:27;;;;;;;4.40;2.55;;;20.50;99.90;;;;;;4061396;29;20209;-75
2022/10/03 10:42:15;;;;;;;4.18;2.60;;;20.70;99.90;;;;;;4062625;29;20282;-76
2022/10/03 10:44:57;;;;;;;3.80;2.60;;;20.90;99.90;;;;;;4032616;29;20264;-74
2022/10/03 10:47:35;;;;;;;5.85;2.75;;;21.20;99.90;;;;;;4062165;29;20220;-75
2022/10/03 10:50:25;;;;;;;6.55;2.67;;;21.40;99.90;;;;;;4052496;29;20212;-75
2022/10/03 10:53:11;;;;;;;5.45;2.40;;;21.50;99.90;;;;;;4062781;29;20303;-75
2022/10/03 10:55:50;;;;;;;5.75;2.58;;;21.60;99.90;;;;;;4062344;29;20675;-74
2022/10/03 10:58:36;;;;;;;5.60;2.72;;;21.60;99.90;;;;;;4058241;29;20410;-75
2022/10/03 11:01:01;;;;;;;4.32;2.55;;;21.70;99.90;;;;;;4103314;28;20889;-74
2022/10/03 11:03:43;;;;;;;4.30;2.50;;;22.00;99.90;;;;;;4124367;28;20231;-74
2022/10/03 11:06:35;;;;;;;5.45;2.20;;;22.00;99.90;;;;;;4136815;28;20279;-74
2022/10/03 11:09:19;;;;;;;6.88;2.97;;;22.10;99.90;;;;;;4139220;28;20293;-73
2022/10/03 11:12:14;;;;;;;4.43;2.35;;;22.40;99.90;;;;;;4125736;28;20605;-74
2022/10/03 11:14:36;;;;;;;6.97;2.78;;;22.20;99.90;;;;;;4134862;28;20562;-74
2022/10/03 11:17:14;;;;;;;3.65;2.03;;;22.40;99.90;;;;;;4146892;28;20213;-75
2022/10/03 11:19:51;;;;;;;6.13;2.70;;;22.70;99.90;;;;;;4120157;28;20265;-72
2022/10/03 11:22:37;;;;;;;4.43;2.78;;;22.60;99.90;;;;;;4122745;28;20691;-72
2022/10/03 11:25:18;;;;;;;5.72;2.30;;;22.80;99.90;;;;;;4138511;28;20214;-72
2022/10/03 11:27:47;;;;;;;5.20;2.78;;;22.80;99.90;;;;;;4142202;28;20216;-71
2022/10/03 11:30:11;;;;;;;4.75;2.58;;;22.90;99.90;;;;;;4142667;28;20615;-71
2022/10/03 11:32:46;;;;;;;5.45;2.38;;;22.70;99.90;;;;;;4145106;28;20251;-71
2022/10/03 11:35:29;;;;;;;12.10;2.92;;;22.80;99.90;;;;;;4143989;28;20227;-72
2022/10/03 11:37:46;;;;;;;8.00;3.05;;;23.00;99.90;;;;;;4144619;28;20229;-73
2022/10/03 11:39:59;;;;;;;7.85;2.72;;;23.00;99.90;;;;;;4138744;28;20217;-71
2022/10/03 11:42:17;;;;;;;7.50;2.90;;;22.90;99.90;;;;;;4136204;28;20623;-72
2022/10/03 11:44:24;;;;;;;8.18;3.22;;;22.90;99.90;;;;;;4134912;28;20658;-72
2022/10/03 11:46:50;;;;;;;6.10;2.47;;;23.00;99.90;;;;;;4143574;28;20225;-73
2022/10/03 11:48:58;;;;;;;8.57;2.92;;;23.00;99.90;;;;;;4120954;28;20217;-71
2022/10/03 11:51:07;;;;;;;5.68;2.22;;;23.30;99.90;;;;;;4144107;28;20229;-72
2022/10/03 11:53:23;;;;;;;8.32;2.38;;;23.20;99.90;;;;;;4142535;28;20736;-71
2022/10/03 11:55:32;;;;;;;9.65;3.08;;;23.20;99.90;;;;;;4142448;28;20213;-71
2022/10/03 11:57:38;;;;;;;6.25;2.75;;;23.20;99.90;;;;;;4135933;28;20233;-71
2022/10/03 11:59:54;;;;;;;6.63;2.55;;;23.10;99.90;;;;;;4140882;28;20271;-71
2022/10/03 12:02:09;;;;;;;7.35;2.47;;;23.10;99.90;;;;;;4140326;28;20213;-72
2022/10/03 12:04:23;;;;;;;6.53;2.72;;;22.90;99.90;;;;;;4136549;28;20213;-73
2022/10/03 12:09:23;;;;;;;10.02;2.85;;;23.80;99.90;;;;;;4142206;28;20193;-74
2022/10/03 12:11:29;;;;;;;11.52;3.03;;;23.50;99.90;;;;;;4143999;28;20213;-75
2022/10/03 12:13:38;;;;;;;10.32;2.58;;;23.20;99.90;;;;;;4144092;28;20271;-74
2022/10/03 12:15:43;;;;;;;6.88;2.78;;;23.30;99.90;;;;;;4128893;28;20258;-74
2022/10/03 12:17:54;;;;;;;7.28;2.70;;;23.30;99.90;;;;;;4147217;28;20743;-76
2022/10/03 12:20:04;;;;;;;6.57;2.90;;;23.10;99.90;;;;;;4141263;28;20266;-73
2022/10/03 12:22:19;;;;;;;5.88;2.53;;;23.10;99.90;;;;;;4133709;28;20309;-75
2022/10/03 12:24:25;;;;;;;6.75;2.22;;;23.40;99.90;;;;;;4139236;28;20221;-75
2022/10/03 12:26:42;;;;;;;10.02;2.95;;;23.50;99.90;;;;;;4136581;28;20298;-74
2022/10/03 12:28:52;;;;;;;5.40;2.30;;;23.80;99.90;;;;;;4139280;28;20217;-74
2022/10/03 12:31:00;;;;;;;7.90;2.53;;;23.50;99.90;;;;;;4145470;28;20216;-73
2022/10/03 12:33:20;;;;;;;6.53;2.83;;;23.40;99.90;;;;;;4140765;28;20217;-74
2022/10/03 12:35:35;;;;;;;3.35;2.47;;;23.50;99.90;;;;;;4139162;28;20212;-74
2022/10/03 12:37:57;;;;;;;6.10;2.70;;;23.40;99.90;;;;;;4139187;28;20299;-75
2022/10/03 12:40:06;;;;;;;7.25;2.67;;;23.10;99.90;;;;;;4143988;28;20217;-75